DEMOS: IP look-up, visitors, map, METAR - This is NOT a real site !

Notice: Undefined index: district in /home/sites/beteljuice.co.uk/public_html/DEMOS/betel_who/who_check.php on line 239 corporate bad guys
Find a country:

Home ...

.... Is where the heart is.

Hello new visitor ... Have some fun with the map whilst you are here !


Location:
,
,
United States
Lat:  ,
Lon:
Other stuff:
District:
as: AS14618 Amazon.com, Inc.
countryCode: US
ISP: Amazon Technologies Inc.
IP address: 3.229.122.166
Region: VA
Time Zone: America/New_York (always useful to know)
Zip / Postal Code: 20149
Organisation: AWS EC2 (us-east-1)

That's All Folks !

METAR stations within miles - nearest first

Currently reporting:
KJYO LEESBURG/GODFREY distance: 4.54 miles. WNW
@ 2019-09-15  20:15 UTC,

     KJYO 152015Z AUTO 34007KT CLR 28/13 A3014 RMK AO2
KIAD WASH DC/DULLES distance: 7.89 miles. SSE
@ 2019-09-15  19:52 UTC,

     KIAD 151952Z VRB05KT 10SM CLR 29/11 A3012 RMK AO2 SLP194 T02940106
KGAI GAITHERSBURG distance: 19.18 miles. ENE
@ 2019-09-15  19:56 UTC,

     KGAI 151956Z AUTO 00000KT 10SM CLR 28/12 A3014 RMK AO2 SLP214 T02830122
KHEF MANASSAS MUNI distance: 22.66 miles. S
@ 2019-09-15  19:56 UTC,

     KHEF 151956Z 24007KT 10SM CLR 31/12 A3011 RMK AO2 SLP199 T03060117
KFDK FREDERICK distance: 26.56 miles. NNE
@ 2019-09-15  19:47 UTC,

     KFDK 151947Z 04006KT 10SM SKC 31/12 A3012
KDCA WASHINGTON/NATL distance: 27.83 miles. ESE
@ 2019-09-15  19:52 UTC,

     KDCA 151952Z 27005KT 10SM FEW030 FEW050 FEW250 31/11 A3011 RMK AO2 SLP196 T03110111
KDAA FORT BELVOIR/DAV distance: 28.43 miles. SE
@ 2019-09-15  19:56 UTC,

     KDAA 151956Z AUTO 27004KT 10SM CLR 31/12 A3010 RMK AO2 SLP195 T03090123 $
KCGS COLLEGE PARK distance: 30.92 miles. E
@ 2019-09-15  20:02 UTC,

     KCGS 152002Z AUTO 00000KT 10SM CLR 29/07 A3010 RMK AO1 T02920067
KHWY WARRENTON distance: 34.12 miles. SSW
@ 2019-09-15  20:15 UTC,

     KHWY 152015Z AUTO 34006KT 10SM CLR 31/10 A3012 RMK AO2 T03060095
KOKV WINCHESTER RGNL distance: 36.07 miles. W
@ 2019-09-15  20:15 UTC,

     KOKV 152015Z AUTO 00000KT 10SM CLR 28/11 A3012 RMK AO2
KMRB MARTINSBURG distance: 36.2 miles. NW
@ 2019-09-15  19:53 UTC,

     KMRB 151953Z AUTO 00000KT 10SM CLR 29/10 A3012 RMK AO2 SLP195 T02940100
KADW ANDREWS AFB distance: 36.87 miles. ESE
@ 2019-09-15  19:56 UTC,

     KADW 151956Z AUTO 26003KT 10SM CLR 30/12 A3011 RMK AO2 SLP201 T03000115 $
KFME FORT MEADE distance: 38.76 miles. E
@ 2019-09-15  20:03 UTC,

     KFME 152003Z AUTO 26005KT 10SM 29/11 A3013 RMK AO1
KNYG QUANTICO MCAF distance: 39.15 miles. SSE
@ 2019-09-15  19:56 UTC,

     KNYG 151956Z AUTO 18007KT 10SM CLR 29/18 A3011 RMK AO2 SLP197 T02940178 $
KCJR CULPEPER distance: 40.76 miles. SSW
@ 2019-09-15  20:15 UTC,

     KCJR 152015Z AUTO 36006KT 10SM CLR 30/11 A3012 RMK AO2 T03010113
KFRR FRONT ROYAL distance: 41.89 miles. WSW
@ 2019-09-15  20:15 UTC,

     KFRR 152015Z AUTO 00000KT 10SM CLR 28/11 A3013 RMK AO1
KBWI BALTO/WASH INTL distance: 43.94 miles. ENE
@ 2019-09-15  19:54 UTC,

     KBWI 151954Z VRB05KT 10SM FEW065 FEW120 FEW250 32/09 A3010 RMK AO2 SLP190 CB DSNT E MOV NE T03170089
KRMN STAFFORD REGNL distance: 44.53 miles. S
@ 2019-09-15  20:15 UTC,

     KRMN 152015Z AUTO 00000KT 10SM CLR 30/15 A3015 RMK AO2 T03000150
KDMW CARROLL CNTY distance: 46.43 miles. NNE
@ 2019-09-15  20:00 UTC,

     KDMW 152000Z AUTO 00000KT 10SM CLR 29/13 A3014 RMK AO2
KHGR HAGERSTOWN distance: 47.2 miles. NNW
@ 2019-09-15  19:53 UTC,

     KHGR 151953Z 00000KT 10SM CLR 28/11 A3013 RMK AO2 SLP207 T02830111
KDMH BALTIMORE/DWNTWN distance: 49.49 miles. ENE
@ 2019-09-15  19:54 UTC,

     KDMH 151954Z AUTO 30/11 A3010 RMK AO1 SLP193 T03000111

Not current (maybe part-time, military or newly obsolete)
KW32 CLINTON distance: 36.05 miles. SE
KRSP NSF THURMONT distance: 41.9 miles. N
KJWX FORT RITCHIE distance: 46.64 miles. N
KRYT FOUNTAIN DALE distance: 47.73 miles. N

Total 'clicks': 111 - Current 'clicks': 1

Last 7 days 33 unique visitors - currently active 1
Ashburn, Virginia, United States - more ...      
- Time on line: 0s. (1 total visits)
Ephrata, Pennsylvania, United States - more ...      
- Last seen: 7 hrs. 23m. 46s. ago. (1 total visits)
Moscow, Russia - more ...      
- Last seen: 17 hrs. 26m. 13s. ago. (14 total visits)
Ashburn, Virginia, United States - more ...      
- Last seen: 1 days 8 hrs. 4m. 22s. ago. (1 total visits)
Helsinki, Uusimaa, Finland - more ...      
- Last seen: 2 days 6 hrs. 21m. 40s. ago. (4 total visits)
Ji'an, Jiangxi, China - more ...      
- Last seen: 2 days 7 hrs. 13m. 27s. ago. (1 total visits)
Paris, Île-de-France, France - more ...      
- Last seen: 2 days 14 hrs. 32m. 26s. ago. (1 total visits)
Ashburn, Virginia, United States - more ...      
- Last seen: 2 days 19 hrs. 18m. 8s. ago. (4 total visits)
Salt Lake City, Utah, United States - more ...      
- Last seen: 2 days 19 hrs. 57m. 34s. ago. (1 total visits)
Moscow, Russia - more ...      
- Last seen: 3 days 6 hrs. 43m. 26s. ago. (4 total visits)
Hefei, Anhui, China - more ...      
- Last seen: 4 days 19 hrs. 16m. 20s. ago. (1 total visits)
Ashburn, Virginia, United States - more ...      
- Last seen: 5 days 17 hrs. 50m. 2s. ago. (2 total visits)
Beaverton, Oregon, United States - more ...      
- Last seen: 6 days 16 hrs. 3m. 44s. ago. (9 total visits)
Duluth, Minnesota, United States - more ...      
- Last seen: 6 days 23 hrs. 25m. 24s. ago. (1 total visits)
Ashburn, Virginia, United States - more ...      
- Last seen: 9 days 4 hrs. 30m. 48s. ago. (2 total visits)
Paris, Île-de-France, France - more ...      
- Last seen: 9 days 7 hrs. 14m. 25s. ago. (1 total visits)
Roubaix, Hauts-de-France, France - more ...      
- Last seen: 10 days 2 hrs. 34m. 1s. ago. (1 total visits)
Nottingham, England, United Kingdom - more ...      
- Last seen: 10 days 6 hrs. 38m. 9s. ago. (1 total visits)
Dudley, England, United Kingdom - more ...      
- Last seen: 10 days 21 hrs. 57m. 20s. ago. (30 total visits)
Paris, Île-de-France, France - more ...      
- Last seen: 12 days 8 hrs. 7m. 44s. ago. (1 total visits)
Kansas City, Missouri, United States - more ...      
- Last seen: 12 days 17 hrs. 13m. 56s. ago. (1 total visits)
Montreal, Quebec, Canada - more ...      
- Last seen: 12 days 18 hrs. 6m. 24s. ago. (3 total visits)
Claremont, New Hampshire, United States - more ...      
- Last seen: 13 days 6 hrs. 45m. 29s. ago. (1 total visits)
Dudley, England, United Kingdom - more ...      
- Last seen: 14 days 55m. 4s. ago. (2 total visits)
Falkenstein, Bavaria, Germany - more ...      
- Last seen: 14 days 16 hrs. 41m. 3s. ago. (2 total visits)
Rotterdam, South Holland, Netherlands - more ...      
- Last seen: 15 days 2 hrs. 16m. 25s. ago. (4 total visits)
Helsinki, Uusimaa, Finland - more ...      
- Last seen: 15 days 13 hrs. 9s. ago. (1 total visits)
Portland, Oregon, United States - more ...      
- Last seen: 15 days 19 hrs. 46m. 24s. ago. (9 total visits)
Paris, Île-de-France, France - more ...      
- Last seen: 18 days 43m. 32s. ago. (1 total visits)
De Pere, Wisconsin, United States - more ...      
- Last seen: 18 days 23 hrs. 48m. 34s. ago. (2 total visits)
Barcelona, Catalonia, Spain - more ...      
- Last seen: 19 days 3 hrs. 15m. 0s. ago. (1 total visits)
Nottingham, Maryland, United States - more ...      
- Last seen: 19 days 17 hrs. 48m. 34s. ago. (2 total visits)
Portland, Oregon, United States - more ...      
- Last seen: 20 days 18 hrs. 39m. 12s. ago. (1 total visits)
By Country:
                       10 countries, 33 visitors, 111 hits
United States:
                              15 visitors, 38 hits
Ashburn, Virginia, United States - more ...      
- Time on line: 0s. (1 total visits)
Ephrata, Pennsylvania, United States - more ...      
- Last seen: 7 hrs. 23m. 46s. ago. (1 total visits)
Ashburn, Virginia, United States - more ...      
- Last seen: 1 days 8 hrs. 4m. 22s. ago. (1 total visits)
Ashburn, Virginia, United States - more ...      
- Last seen: 2 days 19 hrs. 18m. 8s. ago. (4 total visits)
Salt Lake City, Utah, United States - more ...      
- Last seen: 2 days 19 hrs. 57m. 34s. ago. (1 total visits)
Ashburn, Virginia, United States - more ...      
- Last seen: 5 days 17 hrs. 50m. 2s. ago. (2 total visits)
Beaverton, Oregon, United States - more ...      
- Last seen: 6 days 16 hrs. 3m. 44s. ago. (9 total visits)
Duluth, Minnesota, United States - more ...      
- Last seen: 6 days 23 hrs. 25m. 24s. ago. (1 total visits)
Ashburn, Virginia, United States - more ...      
- Last seen: 9 days 4 hrs. 30m. 48s. ago. (2 total visits)
Kansas City, Missouri, United States - more ...      
- Last seen: 12 days 17 hrs. 13m. 56s. ago. (1 total visits)
Claremont, New Hampshire, United States - more ...      
- Last seen: 13 days 6 hrs. 45m. 29s. ago. (1 total visits)
Portland, Oregon, United States - more ...      
- Last seen: 15 days 19 hrs. 46m. 24s. ago. (9 total visits)
De Pere, Wisconsin, United States - more ...      
- Last seen: 18 days 23 hrs. 48m. 34s. ago. (2 total visits)
Nottingham, Maryland, United States - more ...      
- Last seen: 19 days 17 hrs. 48m. 34s. ago. (2 total visits)
Portland, Oregon, United States - more ...      
- Last seen: 20 days 18 hrs. 39m. 12s. ago. (1 total visits)
Russia:
                              2 visitors, 18 hits
Moscow, Russia - more ...      
- Last seen: 17 hrs. 26m. 13s. ago. (14 total visits)
Moscow, Russia - more ...      
- Last seen: 3 days 6 hrs. 43m. 26s. ago. (4 total visits)
Finland:
                              2 visitors, 5 hits
Helsinki, Uusimaa, Finland - more ...      
- Last seen: 2 days 6 hrs. 21m. 40s. ago. (4 total visits)
Helsinki, Uusimaa, Finland - more ...      
- Last seen: 15 days 13 hrs. 9s. ago. (1 total visits)
China:
                              2 visitors, 2 hits
Ji'an, Jiangxi, China - more ...      
- Last seen: 2 days 7 hrs. 13m. 27s. ago. (1 total visits)
Hefei, Anhui, China - more ...      
- Last seen: 4 days 19 hrs. 16m. 20s. ago. (1 total visits)
France:
                              5 visitors, 5 hits
Paris, Île-de-France, France - more ...      
- Last seen: 2 days 14 hrs. 32m. 26s. ago. (1 total visits)
Paris, Île-de-France, France - more ...      
- Last seen: 9 days 7 hrs. 14m. 25s. ago. (1 total visits)
Roubaix, Hauts-de-France, France - more ...      
- Last seen: 10 days 2 hrs. 34m. 1s. ago. (1 total visits)
Paris, Île-de-France, France - more ...      
- Last seen: 12 days 8 hrs. 7m. 44s. ago. (1 total visits)
Paris, Île-de-France, France - more ...      
- Last seen: 18 days 43m. 32s. ago. (1 total visits)
United Kingdom:
                              3 visitors, 33 hits
Nottingham, England, United Kingdom - more ...      
- Last seen: 10 days 6 hrs. 38m. 9s. ago. (1 total visits)
Dudley, England, United Kingdom - more ...      
- Last seen: 10 days 21 hrs. 57m. 20s. ago. (30 total visits)
Dudley, England, United Kingdom - more ...      
- Last seen: 14 days 55m. 4s. ago. (2 total visits)
Canada:
                              1 visitors, 3 hits
Montreal, Quebec, Canada - more ...      
- Last seen: 12 days 18 hrs. 6m. 24s. ago. (3 total visits)
Germany:
                              1 visitors, 2 hits
Falkenstein, Bavaria, Germany - more ...      
- Last seen: 14 days 16 hrs. 41m. 3s. ago. (2 total visits)
Netherlands:
                              1 visitors, 4 hits
Rotterdam, South Holland, Netherlands - more ...      
- Last seen: 15 days 2 hrs. 16m. 25s. ago. (4 total visits)
Spain:
                              1 visitors, 1 hits
Barcelona, Catalonia, Spain - more ...      
- Last seen: 19 days 3 hrs. 15m. 0s. ago. (1 total visits)

Another beteljuice plaything